Markel Herrero

Chief Scout - Eibar
8 Oct 2028
Sunday
Process

Personality

Adaptability (13) Ambition (7) Controversy (17) Loyalty (14) Pressure (3) Professionalism (4) Sportsmanship (15) Temperament (8)

Profile

Coaching Style Democratic
License Continental A
Determination 11
Man Management 6
Motivating 7
Discipline 11
Job Satisfaction
100%
Fatigue
0%
Role Chief Scout
Wage 47.5K p/w
Contract 14.03.2030

Performance

Behaviour Good
Training Effectiveness
48%
Player Development
55%
Injury Prevention
60%
Tactical Implementation
45%

Recent Events

Assessed a player now
Attended a recruitment meeting now
Attended a recruitment meeting now
Recommended a transfer target now
Recommended a transfer target now
Recommended a transfer target now
Assessed a player now
Assessed a player now

Currently Monitoring

142
Player Club Status Ability Confidence Watched Last Observed Latest Vote
Matías Arias Vélez Active 122 / 114 40% 2 07.10.2028 -
Lautaro Díaz San Martín Active 98 / 104 40% 3 07.10.2028 -
Tahiel Peralta Racing Club Active 115 / 115 40% 3 06.10.2028 -
Gustavo Lozano Metropolitanos Active 101 / 102 40% 1 06.10.2028 -
Santiago Muñoz Quilmes Active 78 / 91 40% 2 03.10.2028 -
Emiliano Zambrano Cortulua Active 104 / 95 40% 1 03.10.2028 -
Luis Otávio Orlando City Active 126 / 115 40% 2 02.10.2028 -
Lionel Jara Central Córdoba SdE Active 93 / 111 40% 1 02.10.2028 -
Paolo Dorini Estudiantes de Merida Active 88 / 99 40% 1 18.09.2028 -
Luis Yanes Real Cartagena Active 102 / 92 40% 3 15.09.2028 -
Sebastian Rodriguez Houston Dynamo Active 123 / 120 40% 1 15.09.2028 -
Joel Ezra Enyimba Active 105 / 108 40% 2 13.09.2028 -
Lucca São Paulo Active 120 / 126 40% 1 10.09.2028 -
Pablo Lago Juventud Active 89 / 105 40% 1 10.09.2028 -
Mateo Lizondo Colón Active 81 / 110 40% 1 08.09.2028 -
Santiago Segovia Rosario Central Active 107 / 120 40% 1 06.09.2028 -
Peyton Miller New England Revolution Active 114 / 111 40% 1 05.09.2028 -
Santos Torrealba Metropolitanos Active 85 / 95 40% 1 04.09.2028 -
Julian Hall Real Salt Lake Active 122 / 123 40% 1 04.09.2028 -
Benicio Romero Inter Active 105 / 96 40% 1 22.08.2028 -
Martín D'Aurizio Huracán Active 114 / 105 40% 1 22.08.2028 -
Alejandro Gómez Mirandés Active 113 / 107 58% 1 14.08.2028 -
Thiago Sabella Banfield Active 118 / 109 40% 1 07.08.2028 -
David Fernández Unión de Santa Fe Active 107 / 101 40% 1 07.08.2028 -
Dylan Moody Cheltenham Town Active 110 / 125 40% 1 20.06.2028 -
Ulíses López Barracas Central Active 85 / 99 40% 1 20.06.2028 -
Jeremías Merlo Gimnasia La Plata Active 126 / 128 40% 3 24.01.2028 -
Rémi Himbert AC Ajaccio Active 126 / 129 40% 1 24.01.2028 -
Mao Hosoya Santos Active 134 / 135 67% 1 01.01.2028 Approve
Matěj Ryneš AS Nancy Active 122 / 123 67% 1 01.01.2028 Approve
Ibrahim Fullah Charlton Athletic Active 126 / 127 40% 1 31.12.2027 -
Edison Gruezo Guadalajara Active 93 / 115 40% 2 19.12.2027 -
Giovanni Baroni Talleres Active 121 / 114 40% 2 19.12.2027 -
Victor Hernandez Santa Fe Active 112 / 128 40% 5 18.12.2027 -
Pedro Baltika Active 141 / 140 40% 1 16.12.2027 -
Mateo Peralta Danubio Active 109 / 115 40% 1 16.12.2027 -
Emmanuel Ndubueze Shooting Stars Active 96 / 96 40% 1 15.12.2027 -
Francisco Marchant Colo-Colo Active 81 / 101 40% 1 13.12.2027 -
Luighi Palmeiras Active 118 / 121 40% 1 12.12.2027 -
Dylan Cabral Arsenal Active 92 / 97 40% 2 10.12.2027 -
Mateo Silvetti Seattle Sounders Active 142 / 125 40% 1 10.12.2027 -
Ruben Ramos LA Galaxy Active 83 / 104 40% 1 09.12.2027 -
Francisco Triver River Plate Active 101 / 100 40% 1 09.12.2027 -
Sebastián Muñoz GIF Sundsvall Active 103 / 96 40% 1 07.12.2027 -
Juan Rodríguez Cerro Largo Active 83 / 111 40% 1 06.12.2027 -
Alex Verón Vélez Active 114 / 112 40% 2 02.12.2027 -
Christ Wawa Gefle Active 113 / 100 40% 1 01.12.2027 -
Rafael Moreno Atletico Venezuela Active 96 / 104 40% 1 01.12.2027 -
Nicolás Barros Schelotto Gimnasia La Plata Active 111 / 129 40% 1 29.11.2027 -
Luka Andrade Montevideo City Torque Active 98 / 100 40% 2 26.11.2027 -
Abdulrahman Hamisu Niger Tornadoes Active 85 / 89 40% 1 26.11.2027 -
Tiago Pucciarelli IF Elfsborg Active 116 / 105 40% 2 24.11.2027 -
Tomás Aranda Boca Juniors Active 111 / 124 40% 1 24.11.2027 -
Idris Ajiya Nasarawa United Active 84 / 94 40% 1 23.11.2027 -
Hugo Rojas Instituto Active 100 / 106 40% 1 03.11.2027 -
Trey Nyoni Rotherham United Active 143 / 142 40% 1 01.11.2027 -
Josh Acheampong Everton Active 140 / 148 40% 1 01.11.2027 -
Daniel Idoko Ikorodu City Active 94 / 91 40% 1 31.08.2027 -
Timoteo Chamorro Talleres Active 118 / 105 40% 1 31.08.2027 -
Tommaso Cecotti Carpi Active 98 / 97 40% 1 09.08.2027 -
Facundo Rodríguez Talleres Active 105 / 96 40% 1 28.06.2027 -
Oleh Ocheretko FC Dallas Active 129 / 131 67% 1 01.06.2027 Approve
Carlos Espí Real Madrid Active 129 / 119 40% 1 31.05.2027 -
George Brown Sheffield Wednesday Active 97 / 111 40% 2 29.05.2027 -
Borna Knezović Casarano Active 104 / 105 40% 2 28.05.2027 -
Ephraim Yeboah Bristol City Active 97 / 94 40% 1 28.05.2027 -
Tibe De Vlieger KAA Gent Active 103 / 112 40% 1 27.05.2027 -
Romelle Donovan Brentford Active 128 / 132 40% 7 25.05.2027 -
Bariş Kalaycı Fatih Karagumruk Active 108 / 99 40% 1 25.05.2027 -
Oscar Schwartau Norwich City Active 127 / 132 40% 3 24.05.2027 -
Paulo Cardoso Sporting CP Active 99 / 106 40% 1 23.05.2027 -
Yusi Alavés Active 130 / 134 40% 1 22.05.2027 -
Bazoumana Touré Newcastle United Active 130 / 136 40% 4 21.05.2027 -
Lander Astiazarán Real Sociedad Active 110 / 107 40% 3 19.05.2027 -
Eliás Montiel Borussia Dortmund Active 122 / 141 40% 1 19.05.2027 -
Víctor Guzmán Sporting CP Active 87 / 95 40% 1 18.05.2027 -
Lucas Høgsberg RC Strasbourg Active 126 / 147 40% 3 16.05.2027 -
Louis Leroux FC Nantes Active 119 / 124 40% 3 11.05.2027 -
Martim Cunha Porto Active 107 / 105 40% 1 06.05.2027 -
Izan Merino Málaga Active 126 / 126 40% 4 04.05.2027 -
Eduardo Lozano Botafogo Active 129 / 156 40% 1 04.05.2027 -
Othmane Maamma Watford Active 132 / 128 40% 7 26.04.2027 -
Gianluca Prestianni Benfica Active 140 / 138 40% 5 21.04.2027 -
Yussif Saidu Zaragoza Active 131 / 118 40% 2 09.04.2027 -
Olívio Tomé Benfica Active 114 / 114 40% 2 08.04.2027 -
Samir El Mourabet RC Strasbourg Active 114 / 135 40% 1 07.04.2027 -
Senny Mayulu Paris Saint-Germain Active 136 / 145 40% 2 05.04.2027 -
Patrick Preciado Deportivo Pasto Active 116 / 105 40% 2 04.04.2027 -
Williams Wonah AS Police Active 84 / 85 40% 1 04.04.2027 -
Rocco Vata Watford Active 124 / 130 40% 3 27.03.2027 -
Gessime Yassine RC Strasbourg Active 119 / 125 40% 2 25.03.2027 -
Sebastián Bonilla Victoriia Sumy Active 84 / 82 40% 1 25.03.2027 -
Eduardo Fernandes Benfica Active 98 / 112 40% 2 23.03.2027 -
Marcos Arias Metalurh Zaporizhzhia Active 81 / 100 40% 1 21.03.2027 -
Asanele Bonani Chippa United Active 78 / 98 40% 1 19.03.2027 -
Bernardes Benfica Active 95 / 97 40% 1 19.03.2027 -
Sindre Walle Egeli Udinese Active 137 / 139 40% 1 18.03.2027 -
Mathys Tel Tottenham Active 145 / 141 40% 1 17.03.2027 -
Cheveyo Tsawa Club Brugge Active 121 / 126 40% 1 04.03.2027 -
Mohamadou Kanté Crawley Town Active 112 / 123 40% 1 28.02.2027 -
Malick Fofana Sunderland Active 142 / 155 40% 5 27.02.2027 -
Ethan Williams Peterborough United Active 108 / 111 40% 2 23.02.2027 -
Caleb Yirenkyi Coventry City Active 136 / 147 40% 1 22.02.2027 -
Sam Amo-Ameyaw RC Strasbourg Active 133 / 128 40% 1 20.02.2027 -
Joaquin Seys Club Brugge Active 123 / 134 40% 1 17.02.2027 -
Martin Gjorgievski Zbrojovka Brno Active 113 / 114 40% 2 08.02.2027 -
Dehmaine Tabibou FC Nantes Active 118 / 126 40% 2 07.02.2027 -
Nicolás Ibáñez Cruz Azul Active 132 / 125 40% 1 26.01.2027 -
Ismael Díaz Leon Active 142 / 138 40% 1 19.01.2027 -
Thiago Parga Huracán Active 101 / 93 40% 1 01.01.2027 -
Kyriani Sabbe Club Brugge Active 110 / 130 40% 3 30.12.2026 -
William Gomes Porto Active 134 / 145 40% 1 27.12.2026 -
Kirill Glebov CSKA Moscow Active 138 / 132 40% 1 26.12.2026 -
Bobby Clark Derby County Active 115 / 121 40% 1 18.12.2026 -
Tudor Mendel-Idowu Gubbio Active 103 / 94 40% 1 18.12.2026 -
Diego Gaitán Maipú Active 96 / 128 40% 1 09.12.2026 -
Jan Virgili Club Brugge Active 121 / 142 40% 1 07.12.2026 Needs More Info
Agustín Medina Lanús Active 110 / 127 40% 2 19.11.2026 -
James Bacca La Equidad Active 128 / 128 40% 2 17.11.2026 -
Nahuel Arias San Lorenzo Active 112 / 127 40% 2 16.11.2026 -
Facundo Di Biasi Gimnasia La Plata Active 103 / 134 40% 2 14.11.2026 -
Matías Magdaleno Estudiantes Active 114 / 100 40% 1 13.11.2026 -
Mathias De Amorim Famalicao Active 119 / 140 40% 1 03.11.2026 -
Kevin Contreras Union Espanola Active 82 / 90 40% 1 19.10.2026 -
Nahuel Leivas Montevideo City Torque Active 99 / 98 40% 1 18.10.2026 -
Lautaro Vargas Unión de Santa Fe Active 128 / 127 40% 1 16.10.2026 -
Gonzalo Bordón Independiente Active 122 / 128 40% 1 16.10.2026 -
Santiago Fernández Talleres Active 130 / 136 40% 2 15.10.2026 -
Pedro Bravo FC Midtjylland Active 133 / 129 40% 1 08.10.2026 -
Geanfranco Rodríguez Defensor Sporting Active 96 / 105 40% 1 05.10.2026 -
Thiago Acosta River Plate Active 111 / 108 40% 1 20.09.2026 -
Federico Acosta Miramar Misiones Active 94 / 91 40% 1 17.09.2026 -
Léyder Morán Once Caldas Active 104 / 107 40% 1 11.09.2026 -
Lucas Richarte Temperley Active 87 / 106 40% 1 08.09.2026 -
Alan Forneris Racing Club Active 105 / 116 40% 1 08.09.2026 -
Lautaro Quiroga Defensa y Justicia Active 90 / 98 40% 1 07.09.2026 -
Ignacio Isla Unión de Santa Fe Active 87 / 118 40% 1 25.08.2026 -
Facundo Montiel Colegiales Active 103 / 91 40% 1 25.08.2026 -
Julien Ponceau Valladolid Active 124 / 124 58% 1 17.08.2026 -
Enzo Gramajo Vélez Active 93 / 81 40% 1 10.08.2026 -
Franco Yennerich Talleres Active 87 / 92 40% 1 10.08.2026 -
Pablo Ferreira Platense Active 93 / 103 40% 1 02.08.2026 -